Terminal Aerodrome Forecast
Issued by NWS Blacksburg, VA

Current Version | Previous Version | Text Only | Print | Product List | Glossary Off
Versions: 1 2 3 4 5 6 7 8 9 10 11 12 13 14 15 16 17 18 19 20 21 22 23 24 25 26 27 28 29 30 31 32 33 34

000
FTUS41 KRNK 191434 AAA
TAFBLF
TAF AMD
KBLF 191434Z 1915/2012 28008KT P6SM BKN015
     FM191600 31005KT P6SM SCT025
     FM201000 12004KT 5SM BR BKN010 OVC060=

USA.gov is the U.S. government's official web portal to all federal, state and local government web resources and services.